sensor_id;sensor_type;location;lat;lon;timestamp;P1;durP1;ratioP1;P2;durP2;ratioP2
15126;SDS011;7664;52.008;4.748;2023-12-04T00:02:04;14.05;;;7.20;;
15126;SDS011;7664;52.008;4.748;2023-12-04T00:04:33;14.90;;;7.70;;
15126;SDS011;7664;52.008;4.748;2023-12-04T00:07:01;14.93;;;7.50;;
15126;SDS011;7664;52.008;4.748;2023-12-04T00:09:30;12.52;;;7.03;;
15126;SDS011;7664;52.008;4.748;2023-12-04T00:11:59;15.45;;;6.55;;
15126;SDS011;7664;52.008;4.748;2023-12-04T00:14:27;15.68;;;7.45;;
15126;SDS011;7664;52.008;4.748;2023-12-04T00:16:56;12.68;;;7.03;;
15126;SDS011;7664;52.008;4.748;2023-12-04T00:19:26;11.65;;;6.35;;
15126;SDS011;7664;52.008;4.748;2023-12-04T00:21:54;11.63;;;6.35;;
15126;SDS011;7664;52.008;4.748;2023-12-04T00:24:23;13.57;;;7.70;;
15126;SDS011;7664;52.008;4.748;2023-12-04T00:26:51;14.82;;;6.60;;
15126;SDS011;7664;52.008;4.748;2023-12-04T00:29:23;13.80;;;6.72;;
15126;SDS011;7664;52.008;4.748;2023-12-04T00:31:53;12.48;;;7.22;;
15126;SDS011;7664;52.008;4.748;2023-12-04T00:34:23;13.93;;;6.55;;
15126;SDS011;7664;52.008;4.748;2023-12-04T00:36:53;12.95;;;6.85;;
15126;SDS011;7664;52.008;4.748;2023-12-04T00:39:21;12.70;;;6.70;;
15126;SDS011;7664;52.008;4.748;2023-12-04T00:41:50;14.65;;;7.82;;
15126;SDS011;7664;52.008;4.748;2023-12-04T00:44:18;12.52;;;6.95;;
15126;SDS011;7664;52.008;4.748;2023-12-04T00:46:47;12.15;;;7.20;;
15126;SDS011;7664;52.008;4.748;2023-12-04T00:49:15;14.38;;;7.68;;
15126;SDS011;7664;52.008;4.748;2023-12-04T00:51:45;12.32;;;7.30;;
15126;SDS011;7664;52.008;4.748;2023-12-04T00:54:15;14.05;;;7.32;;
15126;SDS011;7664;52.008;4.748;2023-12-04T00:56:44;15.07;;;8.43;;
15126;SDS011;7664;52.008;4.748;2023-12-04T00:59:12;10.65;;;6.18;;
15126;SDS011;7664;52.008;4.748;2023-12-04T01:01:40;14.32;;;8.10;;
15126;SDS011;7664;52.008;4.748;2023-12-04T01:04:08;10.85;;;6.20;;
15126;SDS011;7664;52.008;4.748;2023-12-04T01:06:37;13.13;;;7.05;;
15126;SDS011;7664;52.008;4.748;2023-12-04T01:09:06;13.88;;;6.40;;
15126;SDS011;7664;52.008;4.748;2023-12-04T01:11:36;14.20;;;7.38;;
15126;SDS011;7664;52.008;4.748;2023-12-04T01:14:05;13.68;;;7.00;;
15126;SDS011;7664;52.008;4.748;2023-12-04T01:16:34;11.43;;;6.65;;
15126;SDS011;7664;52.008;4.748;2023-12-04T01:19:03;14.57;;;7.75;;
15126;SDS011;7664;52.008;4.748;2023-12-04T01:21:31;11.48;;;7.35;;
15126;SDS011;7664;52.008;4.748;2023-12-04T01:23:59;16.08;;;6.82;;
15126;SDS011;7664;52.008;4.748;2023-12-04T01:26:27;12.50;;;6.80;;
15126;SDS011;7664;52.008;4.748;2023-12-04T01:28:57;14.60;;;6.72;;
15126;SDS011;7664;52.008;4.748;2023-12-04T01:31:26;14.40;;;6.68;;
15126;SDS011;7664;52.008;4.748;2023-12-04T01:33:54;11.10;;;6.97;;
15126;SDS011;7664;52.008;4.748;2023-12-04T01:36:23;12.77;;;6.65;;
15126;SDS011;7664;52.008;4.748;2023-12-04T01:38:51;11.75;;;6.13;;
15126;SDS011;7664;52.008;4.748;2023-12-04T01:41:20;12.93;;;7.05;;
15126;SDS011;7664;52.008;4.748;2023-12-04T01:43:48;11.13;;;5.93;;
15126;SDS011;7664;52.008;4.748;2023-12-04T01:46:18;12.23;;;5.97;;
15126;SDS011;7664;52.008;4.748;2023-12-04T01:48:47;13.52;;;6.80;;
15126;SDS011;7664;52.008;4.748;2023-12-04T01:51:17;11.20;;;6.30;;
15126;SDS011;7664;52.008;4.748;2023-12-04T01:53:47;14.27;;;7.10;;
15126;SDS011;7664;52.008;4.748;2023-12-04T01:56:16;12.63;;;6.75;;
15126;SDS011;7664;52.008;4.748;2023-12-04T01:58:46;14.32;;;7.70;;
15126;SDS011;7664;52.008;4.748;2023-12-04T02:01:15;13.75;;;7.55;;
15126;SDS011;7664;52.008;4.748;2023-12-04T02:03:47;12.32;;;6.57;;
15126;SDS011;7664;52.008;4.748;2023-12-04T02:06:16;13.48;;;6.90;;
15126;SDS011;7664;52.008;4.748;2023-12-04T02:08:46;15.65;;;7.85;;
15126;SDS011;7664;52.008;4.748;2023-12-04T02:11:16;13.07;;;7.05;;
15126;SDS011;7664;52.008;4.748;2023-12-04T02:13:44;11.70;;;6.95;;
15126;SDS011;7664;52.008;4.748;2023-12-04T02:16:12;11.80;;;6.80;;
15126;SDS011;7664;52.008;4.748;2023-12-04T02:18:46;15.40;;;7.45;;
15126;SDS011;7664;52.008;4.748;2023-12-04T02:21:15;14.98;;;7.35;;
15126;SDS011;7664;52.008;4.748;2023-12-04T02:23:48;12.70;;;7.05;;
15126;SDS011;7664;52.008;4.748;2023-12-04T02:26:16;14.35;;;6.90;;
15126;SDS011;7664;52.008;4.748;2023-12-04T02:28:51;14.02;;;6.75;;
15126;SDS011;7664;52.008;4.748;2023-12-04T02:31:23;12.80;;;6.68;;
15126;SDS011;7664;52.008;4.748;2023-12-04T02:33:52;13.45;;;6.55;;
15126;SDS011;7664;52.008;4.748;2023-12-04T02:36:24;12.18;;;6.15;;
15126;SDS011;7664;52.008;4.748;2023-12-04T02:38:55;14.23;;;6.80;;
15126;SDS011;7664;52.008;4.748;2023-12-04T02:41:23;13.30;;;6.68;;
15126;SDS011;7664;52.008;4.748;2023-12-04T02:43:53;14.32;;;7.57;;
15126;SDS011;7664;52.008;4.748;2023-12-04T02:46:21;11.80;;;5.43;;
15126;SDS011;7664;52.008;4.748;2023-12-04T02:48:49;13.95;;;7.40;;
15126;SDS011;7664;52.008;4.748;2023-12-04T02:51:18;12.30;;;6.93;;
15126;SDS011;7664;52.008;4.748;2023-12-04T02:53:46;15.02;;;7.63;;
15126;SDS011;7664;52.008;4.748;2023-12-04T02:56:16;11.50;;;6.20;;
15126;SDS011;7664;52.008;4.748;2023-12-04T02:58:44;13.85;;;7.35;;
15126;SDS011;7664;52.008;4.748;2023-12-04T03:01:13;12.40;;;6.45;;
15126;SDS011;7664;52.008;4.748;2023-12-04T03:03:41;14.07;;;6.55;;
15126;SDS011;7664;52.008;4.748;2023-12-04T03:06:10;10.60;;;6.13;;
15126;SDS011;7664;52.008;4.748;2023-12-04T03:08:38;12.43;;;6.53;;
15126;SDS011;7664;52.008;4.748;2023-12-04T03:11:07;12.07;;;7.25;;
15126;SDS011;7664;52.008;4.748;2023-12-04T03:13:38;11.27;;;6.50;;
15126;SDS011;7664;52.008;4.748;2023-12-04T03:16:14;12.40;;;6.35;;
15126;SDS011;7664;52.008;4.748;2023-12-04T03:18:42;14.35;;;6.63;;
15126;SDS011;7664;52.008;4.748;2023-12-04T03:21:11;11.18;;;5.93;;
15126;SDS011;7664;52.008;4.748;2023-12-04T03:23:39;12.05;;;6.38;;
15126;SDS011;7664;52.008;4.748;2023-12-04T03:26:08;12.00;;;6.15;;
15126;SDS011;7664;52.008;4.748;2023-12-04T03:28:39;11.15;;;6.28;;
15126;SDS011;7664;52.008;4.748;2023-12-04T03:31:08;13.48;;;6.93;;
15126;SDS011;7664;52.008;4.748;2023-12-04T03:33:36;14.50;;;6.60;;
15126;SDS011;7664;52.008;4.748;2023-12-04T03:36:05;11.57;;;6.13;;
15126;SDS011;7664;52.008;4.748;2023-12-04T03:38:34;12.32;;;5.75;;
15126;SDS011;7664;52.008;4.748;2023-12-04T03:41:02;11.52;;;6.03;;
15126;SDS011;7664;52.008;4.748;2023-12-04T03:43:31;12.23;;;6.90;;
15126;SDS011;7664;52.008;4.748;2023-12-04T03:46:00;10.93;;;6.25;;
15126;SDS011;7664;52.008;4.748;2023-12-04T03:48:29;11.80;;;6.18;;
15126;SDS011;7664;52.008;4.748;2023-12-04T03:50:57;14.02;;;6.43;;
15126;SDS011;7664;52.008;4.748;2023-12-04T03:53:26;12.32;;;6.55;;
15126;SDS011;7664;52.008;4.748;2023-12-04T03:55:54;11.60;;;5.80;;
15126;SDS011;7664;52.008;4.748;2023-12-04T03:58:26;13.40;;;7.38;;
15126;SDS011;7664;52.008;4.748;2023-12-04T04:00:54;11.85;;;6.72;;
15126;SDS011;7664;52.008;4.748;2023-12-04T04:03:23;14.23;;;6.95;;
15126;SDS011;7664;52.008;4.748;2023-12-04T04:05:52;11.63;;;6.30;;
15126;SDS011;7664;52.008;4.748;2023-12-04T04:08:21;11.27;;;5.63;;
15126;SDS011;7664;52.008;4.748;2023-12-04T04:10:49;11.63;;;6.28;;
15126;SDS011;7664;52.008;4.748;2023-12-04T04:13:17;9.93;;;5.32;;
15126;SDS011;7664;52.008;4.748;2023-12-04T04:15:46;12.18;;;6.10;;
15126;SDS011;7664;52.008;4.748;2023-12-04T04:18:15;11.32;;;6.38;;
15126;SDS011;7664;52.008;4.748;2023-12-04T04:20:44;12.93;;;5.50;;
15126;SDS011;7664;52.008;4.748;2023-12-04T04:23:13;13.13;;;6.35;;
15126;SDS011;7664;52.008;4.748;2023-12-04T04:25:42;11.00;;;5.38;;
15126;SDS011;7664;52.008;4.748;2023-12-04T04:28:10;9.40;;;5.32;;
15126;SDS011;7664;52.008;4.748;2023-12-04T04:30:38;12.05;;;5.90;;
15126;SDS011;7664;52.008;4.748;2023-12-04T04:33:07;12.40;;;5.63;;
15126;SDS011;7664;52.008;4.748;2023-12-04T04:35:36;11.75;;;6.20;;
15126;SDS011;7664;52.008;4.748;2023-12-04T04:38:06;12.13;;;6.47;;
15126;SDS011;7664;52.008;4.748;2023-12-04T04:40:35;11.20;;;5.90;;
15126;SDS011;7664;52.008;4.748;2023-12-04T04:43:04;10.40;;;5.82;;
15126;SDS011;7664;52.008;4.748;2023-12-04T04:45:33;10.52;;;5.40;;
15126;SDS011;7664;52.008;4.748;2023-12-04T04:48:04;11.98;;;6.82;;
15126;SDS011;7664;52.008;4.748;2023-12-04T04:50:33;13.02;;;6.70;;
15126;SDS011;7664;52.008;4.748;2023-12-04T04:53:01;10.38;;;6.05;;
15126;SDS011;7664;52.008;4.748;2023-12-04T04:55:31;11.52;;;5.60;;
15126;SDS011;7664;52.008;4.748;2023-12-04T04:58:14;13.80;;;6.40;;
15126;SDS011;7664;52.008;4.748;2023-12-04T05:00:43;11.63;;;6.20;;
15126;SDS011;7664;52.008;4.748;2023-12-04T05:03:11;12.50;;;5.78;;
15126;SDS011;7664;52.008;4.748;2023-12-04T05:05:42;12.25;;;5.68;;
15126;SDS011;7664;52.008;4.748;2023-12-04T05:08:11;14.90;;;6.90;;
15126;SDS011;7664;52.008;4.748;2023-12-04T05:10:41;10.95;;;5.93;;
15126;SDS011;7664;52.008;4.748;2023-12-04T05:13:09;17.38;;;7.05;;
15126;SDS011;7664;52.008;4.748;2023-12-04T05:15:41;10.82;;;5.13;;
15126;SDS011;7664;52.008;4.748;2023-12-04T05:18:09;14.23;;;6.65;;
15126;SDS011;7664;52.008;4.748;2023-12-04T05:20:38;10.40;;;5.57;;
15126;SDS011;7664;52.008;4.748;2023-12-04T05:23:06;14.18;;;5.95;;
15126;SDS011;7664;52.008;4.748;2023-12-04T05:25:35;10.50;;;5.57;;
15126;SDS011;7664;52.008;4.748;2023-12-04T05:28:15;10.82;;;6.20;;
15126;SDS011;7664;52.008;4.748;2023-12-04T05:30:43;11.05;;;5.72;;
15126;SDS011;7664;52.008;4.748;2023-12-04T05:33:11;10.32;;;5.70;;
15126;SDS011;7664;52.008;4.748;2023-12-04T05:35:39;9.93;;;5.63;;
15126;SDS011;7664;52.008;4.748;2023-12-04T05:38:08;15.88;;;6.57;;
15126;SDS011;7664;52.008;4.748;2023-12-04T05:40:36;8.07;;;4.80;;
15126;SDS011;7664;52.008;4.748;2023-12-04T05:43:04;11.70;;;6.25;;
15126;SDS011;7664;52.008;4.748;2023-12-04T05:45:34;9.45;;;5.80;;
15126;SDS011;7664;52.008;4.748;2023-12-04T05:48:03;10.07;;;5.47;;
15126;SDS011;7664;52.008;4.748;2023-12-04T05:50:31;11.55;;;5.40;;
15126;SDS011;7664;52.008;4.748;2023-12-04T05:53:00;10.18;;;5.38;;
15126;SDS011;7664;52.008;4.748;2023-12-04T05:55:28;10.90;;;5.70;;
15126;SDS011;7664;52.008;4.748;2023-12-04T05:57:56;12.70;;;5.70;;
15126;SDS011;7664;52.008;4.748;2023-12-04T06:00:24;10.70;;;5.95;;
15126;SDS011;7664;52.008;4.748;2023-12-04T06:02:56;10.15;;;5.45;;
15126;SDS011;7664;52.008;4.748;2023-12-04T06:05:25;11.88;;;6.32;;
15126;SDS011;7664;52.008;4.748;2023-12-04T06:07:53;8.68;;;4.93;;
15126;SDS011;7664;52.008;4.748;2023-12-04T06:10:24;9.82;;;4.95;;
15126;SDS011;7664;52.008;4.748;2023-12-04T06:12:52;10.32;;;4.80;;
15126;SDS011;7664;52.008;4.748;2023-12-04T06:15:20;11.55;;;5.70;;
15126;SDS011;7664;52.008;4.748;2023-12-04T06:17:48;10.48;;;5.20;;
15126;SDS011;7664;52.008;4.748;2023-12-04T06:20:18;7.78;;;4.85;;
15126;SDS011;7664;52.008;4.748;2023-12-04T06:22:46;9.43;;;5.53;;
15126;SDS011;7664;52.008;4.748;2023-12-04T06:25:15;8.43;;;5.15;;
15126;SDS011;7664;52.008;4.748;2023-12-04T06:27:44;12.20;;;5.20;;
15126;SDS011;7664;52.008;4.748;2023-12-04T06:30:13;9.63;;;5.15;;
15126;SDS011;7664;52.008;4.748;2023-12-04T06:32:42;11.77;;;5.78;;
15126;SDS011;7664;52.008;4.748;2023-12-04T06:35:11;9.43;;;5.50;;
15126;SDS011;7664;52.008;4.748;2023-12-04T06:37:47;8.73;;;5.18;;
15126;SDS011;7664;52.008;4.748;2023-12-04T06:40:17;9.05;;;5.25;;
15126;SDS011;7664;52.008;4.748;2023-12-04T06:42:46;10.55;;;5.93;;
15126;SDS011;7664;52.008;4.748;2023-12-04T06:45:15;11.70;;;5.88;;
15126;SDS011;7664;52.008;4.748;2023-12-04T06:47:44;9.00;;;5.45;;
15126;SDS011;7664;52.008;4.748;2023-12-04T06:50:16;10.18;;;5.07;;
15126;SDS011;7664;52.008;4.748;2023-12-04T06:52:54;8.93;;;5.20;;
15126;SDS011;7664;52.008;4.748;2023-12-04T06:55:22;10.23;;;5.43;;
15126;SDS011;7664;52.008;4.748;2023-12-04T06:57:51;10.75;;;5.40;;
15126;SDS011;7664;52.008;4.748;2023-12-04T07:00:19;13.30;;;5.57;;
15126;SDS011;7664;52.008;4.748;2023-12-04T07:02:48;10.85;;;5.25;;
15126;SDS011;7664;52.008;4.748;2023-12-04T07:05:17;12.13;;;5.90;;
15126;SDS011;7664;52.008;4.748;2023-12-04T07:07:47;9.65;;;5.28;;
15126;SDS011;7664;52.008;4.748;2023-12-04T07:10:17;9.48;;;5.30;;
15126;SDS011;7664;52.008;4.748;2023-12-04T07:12:45;8.73;;;5.00;;
15126;SDS011;7664;52.008;4.748;2023-12-04T07:15:13;9.30;;;4.90;;
15126;SDS011;7664;52.008;4.748;2023-12-04T07:17:42;9.57;;;5.35;;
15126;SDS011;7664;52.008;4.748;2023-12-04T07:20:10;11.07;;;6.07;;
15126;SDS011;7664;52.008;4.748;2023-12-04T07:22:39;9.27;;;5.38;;
15126;SDS011;7664;52.008;4.748;2023-12-04T07:25:08;9.27;;;5.57;;
15126;SDS011;7664;52.008;4.748;2023-12-04T07:27:38;8.95;;;5.00;;
15126;SDS011;7664;52.008;4.748;2023-12-04T07:30:06;11.77;;;6.30;;
15126;SDS011;7664;52.008;4.748;2023-12-04T07:32:35;9.63;;;5.80;;
15126;SDS011;7664;52.008;4.748;2023-12-04T07:35:03;10.90;;;5.57;;
15126;SDS011;7664;52.008;4.748;2023-12-04T07:37:32;10.90;;;5.20;;
15126;SDS011;7664;52.008;4.748;2023-12-04T07:40:01;12.40;;;6.25;;
15126;SDS011;7664;52.008;4.748;2023-12-04T07:42:30;11.60;;;5.82;;
15126;SDS011;7664;52.008;4.748;2023-12-04T07:44:59;8.95;;;5.38;;
15126;SDS011;7664;52.008;4.748;2023-12-04T07:47:28;9.57;;;4.63;;
15126;SDS011;7664;52.008;4.748;2023-12-04T07:49:56;6.40;;;4.55;;
15126;SDS011;7664;52.008;4.748;2023-12-04T07:52:26;8.57;;;5.15;;
15126;SDS011;7664;52.008;4.748;2023-12-04T07:54:55;10.15;;;5.60;;
15126;SDS011;7664;52.008;4.748;2023-12-04T07:57:23;9.25;;;4.97;;
15126;SDS011;7664;52.008;4.748;2023-12-04T07:59:51;10.57;;;5.68;;
15126;SDS011;7664;52.008;4.748;2023-12-04T08:02:21;12.10;;;6.03;;
15126;SDS011;7664;52.008;4.748;2023-12-04T08:04:49;9.60;;;5.82;;
15126;SDS011;7664;52.008;4.748;2023-12-04T08:07:17;12.70;;;6.10;;
15126;SDS011;7664;52.008;4.748;2023-12-04T08:09:46;10.02;;;5.47;;
15126;SDS011;7664;52.008;4.748;2023-12-04T08:12:14;10.05;;;5.30;;
15126;SDS011;7664;52.008;4.748;2023-12-04T08:14:42;11.80;;;5.30;;
15126;SDS011;7664;52.008;4.748;2023-12-04T08:17:13;8.90;;;5.43;;
15126;SDS011;7664;52.008;4.748;2023-12-04T08:19:43;8.40;;;5.35;;
15126;SDS011;7664;52.008;4.748;2023-12-04T08:22:15;8.35;;;5.15;;
15126;SDS011;7664;52.008;4.748;2023-12-04T08:24:43;8.77;;;4.80;;
15126;SDS011;7664;52.008;4.748;2023-12-04T08:27:11;9.13;;;5.38;;
15126;SDS011;7664;52.008;4.748;2023-12-04T08:29:39;9.60;;;5.50;;
15126;SDS011;7664;52.008;4.748;2023-12-04T08:32:08;8.55;;;5.10;;
15126;SDS011;7664;52.008;4.748;2023-12-04T08:34:36;10.77;;;6.22;;
15126;SDS011;7664;52.008;4.748;2023-12-04T08:37:06;8.75;;;5.40;;
15126;SDS011;7664;52.008;4.748;2023-12-04T08:39:35;8.15;;;5.43;;
15126;SDS011;7664;52.008;4.748;2023-12-04T08:42:04;10.05;;;5.63;;
15126;SDS011;7664;52.008;4.748;2023-12-04T08:44:42;9.75;;;5.22;;
15126;SDS011;7664;52.008;4.748;2023-12-04T08:47:12;8.93;;;4.85;;
15126;SDS011;7664;52.008;4.748;2023-12-04T08:49:40;7.53;;;4.60;;
15126;SDS011;7664;52.008;4.748;2023-12-04T08:52:16;9.35;;;4.53;;
15126;SDS011;7664;52.008;4.748;2023-12-04T08:54:44;8.05;;;4.68;;
15126;SDS011;7664;52.008;4.748;2023-12-04T08:57:13;7.05;;;4.43;;
15126;SDS011;7664;52.008;4.748;2023-12-04T08:59:41;9.70;;;5.07;;
15126;SDS011;7664;52.008;4.748;2023-12-04T09:02:09;7.53;;;4.47;;
15126;SDS011;7664;52.008;4.748;2023-12-04T09:04:40;7.03;;;4.57;;
15126;SDS011;7664;52.008;4.748;2023-12-04T09:07:09;5.93;;;3.92;;
15126;SDS011;7664;52.008;4.748;2023-12-04T09:09:59;5.97;;;3.70;;
15126;SDS011;7664;52.008;4.748;2023-12-04T09:12:36;7.47;;;4.47;;
15126;SDS011;7664;52.008;4.748;2023-12-04T09:15:05;10.55;;;4.70;;
15126;SDS011;7664;52.008;4.748;2023-12-04T09:17:35;6.38;;;4.13;;
15126;SDS011;7664;52.008;4.748;2023-12-04T09:20:05;8.18;;;4.63;;
15126;SDS011;7664;52.008;4.748;2023-12-04T09:22:35;6.97;;;3.95;;
15126;SDS011;7664;52.008;4.748;2023-12-04T09:25:19;5.35;;;3.70;;
15126;SDS011;7664;52.008;4.748;2023-12-04T09:27:47;7.75;;;4.40;;
15126;SDS011;7664;52.008;4.748;2023-12-04T09:30:16;7.68;;;4.75;;
15126;SDS011;7664;52.008;4.748;2023-12-04T09:32:45;6.15;;;3.80;;
15126;SDS011;7664;52.008;4.748;2023-12-04T09:35:13;8.07;;;4.43;;
15126;SDS011;7664;52.008;4.748;2023-12-04T09:37:42;7.57;;;4.45;;
15126;SDS011;7664;52.008;4.748;2023-12-04T09:40:12;8.45;;;4.68;;
15126;SDS011;7664;52.008;4.748;2023-12-04T09:42:42;7.30;;;3.95;;
15126;SDS011;7664;52.008;4.748;2023-12-04T09:45:10;6.10;;;3.90;;
15126;SDS011;7664;52.008;4.748;2023-12-04T09:47:39;7.32;;;4.30;;
15126;SDS011;7664;52.008;4.748;2023-12-04T09:50:11;8.48;;;4.53;;
15126;SDS011;7664;52.008;4.748;2023-12-04T09:52:40;7.78;;;4.10;;
15126;SDS011;7664;52.008;4.748;2023-12-04T09:55:09;7.28;;;4.10;;
15126;SDS011;7664;52.008;4.748;2023-12-04T09:57:37;6.57;;;3.67;;
15126;SDS011;7664;52.008;4.748;2023-12-04T10:00:08;7.72;;;4.40;;
15126;SDS011;7664;52.008;4.748;2023-12-04T10:02:39;7.00;;;3.47;;
15126;SDS011;7664;52.008;4.748;2023-12-04T10:05:08;7.03;;;4.75;;
15126;SDS011;7664;52.008;4.748;2023-12-04T10:07:37;5.55;;;4.05;;
15126;SDS011;7664;52.008;4.748;2023-12-04T10:10:06;7.18;;;4.25;;
15126;SDS011;7664;52.008;4.748;2023-12-04T10:12:35;6.07;;;3.90;;
15126;SDS011;7664;52.008;4.748;2023-12-04T10:15:05;7.63;;;3.97;;
15126;SDS011;7664;52.008;4.748;2023-12-04T10:17:37;7.93;;;4.10;;
15126;SDS011;7664;52.008;4.748;2023-12-04T10:20:07;6.05;;;4.22;;
15126;SDS011;7664;52.008;4.748;2023-12-04T10:22:39;7.30;;;3.60;;
15126;SDS011;7664;52.008;4.748;2023-12-04T10:25:20;7.22;;;4.32;;
15126;SDS011;7664;52.008;4.748;2023-12-04T10:27:50;7.78;;;4.82;;
15126;SDS011;7664;52.008;4.748;2023-12-04T10:30:26;6.28;;;4.15;;
15126;SDS011;7664;52.008;4.748;2023-12-04T10:32:57;7.22;;;4.18;;
15126;SDS011;7664;52.008;4.748;2023-12-04T10:35:29;6.75;;;4.22;;
15126;SDS011;7664;52.008;4.748;2023-12-04T10:37:58;6.65;;;4.35;;
15126;SDS011;7664;52.008;4.748;2023-12-04T10:40:28;6.68;;;3.83;;
15126;SDS011;7664;52.008;4.748;2023-12-04T10:45:46;8.80;;;4.68;;
15126;SDS011;7664;52.008;4.748;2023-12-04T10:48:17;8.75;;;3.92;;
15126;SDS011;7664;52.008;4.748;2023-12-04T10:50:46;7.22;;;3.85;;
15126;SDS011;7664;52.008;4.748;2023-12-04T10:53:17;6.70;;;4.05;;
15126;SDS011;7664;52.008;4.748;2023-12-04T10:55:45;7.20;;;4.25;;
15126;SDS011;7664;52.008;4.748;2023-12-04T10:58:16;7.72;;;4.18;;
15126;SDS011;7664;52.008;4.748;2023-12-04T11:00:48;6.75;;;4.25;;
15126;SDS011;7664;52.008;4.748;2023-12-04T11:03:19;9.50;;;4.20;;
15126;SDS011;7664;52.008;4.748;2023-12-04T11:05:56;5.13;;;3.58;;
15126;SDS011;7664;52.008;4.748;2023-12-04T11:08:28;7.22;;;4.47;;
15126;SDS011;7664;52.008;4.748;2023-12-04T11:10:58;8.23;;;3.95;;
15126;SDS011;7664;52.008;4.748;2023-12-04T11:13:30;5.45;;;4.05;;
15126;SDS011;7664;52.008;4.748;2023-12-04T11:16:07;6.15;;;3.78;;
15126;SDS011;7664;52.008;4.748;2023-12-04T11:18:43;8.02;;;3.97;;
15126;SDS011;7664;52.008;4.748;2023-12-04T11:21:14;6.40;;;4.03;;
15126;SDS011;7664;52.008;4.748;2023-12-04T11:23:46;6.72;;;4.07;;
15126;SDS011;7664;52.008;4.748;2023-12-04T11:26:16;7.63;;;3.75;;
15126;SDS011;7664;52.008;4.748;2023-12-04T11:28:44;6.18;;;3.95;;
15126;SDS011;7664;52.008;4.748;2023-12-04T11:31:16;8.98;;;4.03;;
15126;SDS011;7664;52.008;4.748;2023-12-04T11:33:44;6.85;;;4.05;;
15126;SDS011;7664;52.008;4.748;2023-12-04T11:36:14;6.32;;;4.28;;
15126;SDS011;7664;52.008;4.748;2023-12-04T11:38:44;6.65;;;4.30;;
15126;SDS011;7664;52.008;4.748;2023-12-04T11:41:15;8.43;;;4.20;;
15126;SDS011;7664;52.008;4.748;2023-12-04T11:43:49;6.90;;;4.32;;
15126;SDS011;7664;52.008;4.748;2023-12-04T11:46:26;7.03;;;3.70;;
15126;SDS011;7664;52.008;4.748;2023-12-04T11:51:58;7.47;;;4.15;;
15126;SDS011;7664;52.008;4.748;2023-12-04T11:54:28;5.88;;;3.92;;
15126;SDS011;7664;52.008;4.748;2023-12-04T11:57:00;8.82;;;4.32;;
15126;SDS011;7664;52.008;4.748;2023-12-04T11:59:44;7.05;;;4.38;;
15126;SDS011;7664;52.008;4.748;2023-12-04T12:02:14;6.97;;;4.22;;
15126;SDS011;7664;52.008;4.748;2023-12-04T12:04:43;6.32;;;3.78;;
15126;SDS011;7664;52.008;4.748;2023-12-04T12:07:13;4.75;;;3.28;;
15126;SDS011;7664;52.008;4.748;2023-12-04T12:09:42;4.82;;;3.45;;
15126;SDS011;7664;52.008;4.748;2023-12-04T12:12:10;7.25;;;4.10;;
15126;SDS011;7664;52.008;4.748;2023-12-04T12:14:41;6.70;;;3.97;;
15126;SDS011;7664;52.008;4.748;2023-12-04T12:17:09;7.45;;;3.90;;
15126;SDS011;7664;52.008;4.748;2023-12-04T12:19:42;6.50;;;4.13;;
15126;SDS011;7664;52.008;4.748;2023-12-04T12:22:10;6.50;;;4.22;;
15126;SDS011;7664;52.008;4.748;2023-12-04T12:24:39;10.80;;;4.70;;
15126;SDS011;7664;52.008;4.748;2023-12-04T12:27:08;7.57;;;4.32;;
15126;SDS011;7664;52.008;4.748;2023-12-04T12:29:38;7.68;;;4.70;;
15126;SDS011;7664;52.008;4.748;2023-12-04T12:32:06;7.85;;;4.95;;
15126;SDS011;7664;52.008;4.748;2023-12-04T12:34:34;6.88;;;4.43;;
15126;SDS011;7664;52.008;4.748;2023-12-04T12:37:05;8.30;;;5.10;;
15126;SDS011;7664;52.008;4.748;2023-12-04T12:39:34;8.57;;;4.75;;
15126;SDS011;7664;52.008;4.748;2023-12-04T12:42:02;11.13;;;5.93;;
15126;SDS011;7664;52.008;4.748;2023-12-04T12:44:38;8.43;;;5.25;;
15126;SDS011;7664;52.008;4.748;2023-12-04T12:47:09;8.25;;;4.80;;
15126;SDS011;7664;52.008;4.748;2023-12-04T12:49:39;9.35;;;5.43;;
15126;SDS011;7664;52.008;4.748;2023-12-04T12:52:10;10.82;;;4.93;;
15126;SDS011;7664;52.008;4.748;2023-12-04T12:54:39;10.68;;;5.00;;
15126;SDS011;7664;52.008;4.748;2023-12-04T12:57:08;9.43;;;5.65;;
15126;SDS011;7664;52.008;4.748;2023-12-04T12:59:38;10.30;;;5.53;;
15126;SDS011;7664;52.008;4.748;2023-12-04T13:02:07;10.32;;;5.90;;
15126;SDS011;7664;52.008;4.748;2023-12-04T13:04:37;8.18;;;5.40;;
15126;SDS011;7664;52.008;4.748;2023-12-04T13:07:10;9.50;;;6.13;;
15126;SDS011;7664;52.008;4.748;2023-12-04T13:09:39;9.48;;;5.43;;
15126;SDS011;7664;52.008;4.748;2023-12-04T13:12:10;11.23;;;6.40;;
15126;SDS011;7664;52.008;4.748;2023-12-04T13:14:40;9.30;;;5.72;;
15126;SDS011;7664;52.008;4.748;2023-12-04T13:17:08;11.43;;;6.07;;
15126;SDS011;7664;52.008;4.748;2023-12-04T13:19:37;10.88;;;6.15;;
15126;SDS011;7664;52.008;4.748;2023-12-04T13:22:06;9.98;;;5.50;;
15126;SDS011;7664;52.008;4.748;2023-12-04T13:24:37;14.52;;;6.00;;
15126;SDS011;7664;52.008;4.748;2023-12-04T13:27:07;11.48;;;5.82;;
15126;SDS011;7664;52.008;4.748;2023-12-04T13:29:37;10.10;;;6.07;;
15126;SDS011;7664;52.008;4.748;2023-12-04T13:32:05;8.38;;;4.90;;
15126;SDS011;7664;52.008;4.748;2023-12-04T13:34:34;9.38;;;5.45;;
15126;SDS011;7664;52.008;4.748;2023-12-04T13:37:03;10.23;;;6.03;;
15126;SDS011;7664;52.008;4.748;2023-12-04T13:39:31;7.70;;;5.00;;
15126;SDS011;7664;52.008;4.748;2023-12-04T13:42:15;9.98;;;6.18;;
15126;SDS011;7664;52.008;4.748;2023-12-04T13:45:01;10.15;;;5.60;;
15126;SDS011;7664;52.008;4.748;2023-12-04T13:47:31;9.38;;;6.13;;
15126;SDS011;7664;52.008;4.748;2023-12-04T13:50:01;10.80;;;6.00;;
15126;SDS011;7664;52.008;4.748;2023-12-04T13:52:30;8.55;;;6.00;;
15126;SDS011;7664;52.008;4.748;2023-12-04T13:55:00;9.52;;;5.65;;
15126;SDS011;7664;52.008;4.748;2023-12-04T13:57:39;7.60;;;5.38;;
15126;SDS011;7664;52.008;4.748;2023-12-04T14:00:26;9.90;;;5.50;;
15126;SDS011;7664;52.008;4.748;2023-12-04T14:02:55;20.23;;;7.40;;
15126;SDS011;7664;52.008;4.748;2023-12-04T14:05:31;11.48;;;6.28;;
15126;SDS011;7664;52.008;4.748;2023-12-04T14:08:01;11.27;;;6.50;;
15126;SDS011;7664;52.008;4.748;2023-12-04T14:10:31;11.93;;;6.72;;
15126;SDS011;7664;52.008;4.748;2023-12-04T14:13:02;10.60;;;6.70;;
15126;SDS011;7664;52.008;4.748;2023-12-04T14:15:32;11.35;;;7.03;;
15126;SDS011;7664;52.008;4.748;2023-12-04T14:18:00;9.77;;;5.97;;
15126;SDS011;7664;52.008;4.748;2023-12-04T14:20:34;8.70;;;5.82;;
15126;SDS011;7664;52.008;4.748;2023-12-04T14:23:03;11.23;;;6.78;;
15126;SDS011;7664;52.008;4.748;2023-12-04T14:25:47;12.65;;;6.80;;
15126;SDS011;7664;52.008;4.748;2023-12-04T14:28:16;8.95;;;5.20;;
15126;SDS011;7664;52.008;4.748;2023-12-04T14:30:54;10.00;;;5.93;;
15126;SDS011;7664;52.008;4.748;2023-12-04T14:33:23;10.13;;;6.55;;
15126;SDS011;7664;52.008;4.748;2023-12-04T14:35:52;11.35;;;7.28;;
15126;SDS011;7664;52.008;4.748;2023-12-04T14:38:20;10.23;;;5.97;;
15126;SDS011;7664;52.008;4.748;2023-12-04T14:40:49;11.43;;;6.45;;
15126;SDS011;7664;52.008;4.748;2023-12-04T14:43:21;16.58;;;7.03;;
15126;SDS011;7664;52.008;4.748;2023-12-04T14:45:51;13.73;;;6.63;;
15126;SDS011;7664;52.008;4.748;2023-12-04T14:48:23;10.80;;;6.47;;
15126;SDS011;7664;52.008;4.748;2023-12-04T14:50:55;13.02;;;6.25;;
15126;SDS011;7664;52.008;4.748;2023-12-04T14:53:28;13.90;;;6.43;;
15126;SDS011;7664;52.008;4.748;2023-12-04T14:56:08;10.30;;;6.15;;
15126;SDS011;7664;52.008;4.748;2023-12-04T14:59:14;10.60;;;6.50;;
15126;SDS011;7664;52.008;4.748;2023-12-04T15:02:12;10.93;;;6.55;;
15126;SDS011;7664;52.008;4.748;2023-12-04T15:04:57;9.45;;;6.30;;
15126;SDS011;7664;52.008;4.748;2023-12-04T15:07:43;11.48;;;6.03;;
15126;SDS011;7664;52.008;4.748;2023-12-04T15:10:37;10.95;;;6.35;;
15126;SDS011;7664;52.008;4.748;2023-12-04T15:13:30;14.02;;;6.65;;
15126;SDS011;7664;52.008;4.748;2023-12-04T15:16:22;10.20;;;6.30;;
15126;SDS011;7664;52.008;4.748;2023-12-04T15:19:09;11.18;;;6.18;;